sensor_id;sensor_type;location;lat;lon;timestamp;P1;durP1;ratioP1;P2;durP2;ratioP2
54561;SDS011;69047;53.358;-1.486;2023-08-17T00:01:06;17.77;;;9.48;;
54561;SDS011;69047;53.358;-1.486;2023-08-17T00:03:32;20.80;;;11.60;;
54561;SDS011;69047;53.358;-1.486;2023-08-17T00:05:57;34.63;;;14.85;;
54561;SDS011;69047;53.358;-1.486;2023-08-17T00:08:22;23.38;;;13.82;;
54561;SDS011;69047;53.358;-1.486;2023-08-17T00:10:48;18.83;;;10.68;;
54561;SDS011;69047;53.358;-1.486;2023-08-17T00:13:13;20.30;;;10.13;;
54561;SDS011;69047;53.358;-1.486;2023-08-17T00:15:39;18.60;;;11.55;;
54561;SDS011;69047;53.358;-1.486;2023-08-17T00:18:04;20.08;;;11.88;;
54561;SDS011;69047;53.358;-1.486;2023-08-17T00:20:30;24.15;;;13.48;;
54561;SDS011;69047;53.358;-1.486;2023-08-17T00:22:55;25.08;;;13.85;;
54561;SDS011;69047;53.358;-1.486;2023-08-17T00:25:21;24.27;;;12.88;;
54561;SDS011;69047;53.358;-1.486;2023-08-17T00:27:46;28.08;;;13.55;;
54561;SDS011;69047;53.358;-1.486;2023-08-17T00:30:11;26.05;;;15.10;;
54561;SDS011;69047;53.358;-1.486;2023-08-17T00:32:37;28.42;;;18.17;;
54561;SDS011;69047;53.358;-1.486;2023-08-17T00:35:02;34.75;;;18.83;;
54561;SDS011;69047;53.358;-1.486;2023-08-17T00:37:28;38.33;;;19.95;;
54561;SDS011;69047;53.358;-1.486;2023-08-17T00:39:53;48.13;;;25.98;;
54561;SDS011;69047;53.358;-1.486;2023-08-17T00:42:19;44.97;;;25.40;;
54561;SDS011;69047;53.358;-1.486;2023-08-17T00:44:44;45.38;;;27.23;;
54561;SDS011;69047;53.358;-1.486;2023-08-17T00:47:10;45.33;;;26.73;;
54561;SDS011;69047;53.358;-1.486;2023-08-17T00:49:35;56.97;;;29.13;;
54561;SDS011;69047;53.358;-1.486;2023-08-17T00:52:01;54.55;;;29.70;;
54561;SDS011;69047;53.358;-1.486;2023-08-17T00:54:27;48.92;;;28.60;;
54561;SDS011;69047;53.358;-1.486;2023-08-17T00:56:55;55.25;;;29.17;;
54561;SDS011;69047;53.358;-1.486;2023-08-17T00:59:21;60.30;;;30.60;;
54561;SDS011;69047;53.358;-1.486;2023-08-17T01:01:48;62.58;;;31.83;;
54561;SDS011;69047;53.358;-1.486;2023-08-17T01:04:14;68.97;;;33.53;;
54561;SDS011;69047;53.358;-1.486;2023-08-17T01:06:39;59.92;;;31.27;;
54561;SDS011;69047;53.358;-1.486;2023-08-17T01:09:05;75.78;;;33.20;;
54561;SDS011;69047;53.358;-1.486;2023-08-17T01:11:36;66.25;;;32.50;;
54561;SDS011;69047;53.358;-1.486;2023-08-17T01:14:10;63.58;;;33.60;;
54561;SDS011;69047;53.358;-1.486;2023-08-17T01:16:55;65.88;;;33.97;;
54561;SDS011;69047;53.358;-1.486;2023-08-17T01:19:27;68.55;;;33.53;;
54561;SDS011;69047;53.358;-1.486;2023-08-17T01:22:03;77.93;;;36.17;;
54561;SDS011;69047;53.358;-1.486;2023-08-17T01:24:29;66.30;;;36.75;;
54561;SDS011;69047;53.358;-1.486;2023-08-17T01:26:55;69.53;;;37.10;;
54561;SDS011;69047;53.358;-1.486;2023-08-17T01:29:20;77.63;;;37.55;;
54561;SDS011;69047;53.358;-1.486;2023-08-17T01:31:53;76.05;;;38.63;;
54561;SDS011;69047;53.358;-1.486;2023-08-17T01:34:22;75.53;;;37.67;;
54561;SDS011;69047;53.358;-1.486;2023-08-17T01:36:59;81.32;;;38.70;;
54561;SDS011;69047;53.358;-1.486;2023-08-17T01:39:27;86.68;;;40.90;;
54561;SDS011;69047;53.358;-1.486;2023-08-17T01:44:25;85.00;;;39.38;;
54561;SDS011;69047;53.358;-1.486;2023-08-17T01:46:52;81.75;;;39.25;;
54561;SDS011;69047;53.358;-1.486;2023-08-17T01:49:18;90.00;;;40.65;;
54561;SDS011;69047;53.358;-1.486;2023-08-17T01:51:43;87.65;;;41.65;;
54561;SDS011;69047;53.358;-1.486;2023-08-17T01:54:09;99.50;;;42.53;;
54561;SDS011;69047;53.358;-1.486;2023-08-17T01:56:34;94.30;;;40.63;;
54561;SDS011;69047;53.358;-1.486;2023-08-17T01:58:59;96.40;;;43.40;;
54561;SDS011;69047;53.358;-1.486;2023-08-17T02:01:25;100.55;;;44.28;;
54561;SDS011;69047;53.358;-1.486;2023-08-17T02:03:50;98.80;;;44.47;;
54561;SDS011;69047;53.358;-1.486;2023-08-17T02:06:16;89.93;;;42.60;;
54561;SDS011;69047;53.358;-1.486;2023-08-17T02:08:41;96.65;;;44.85;;
54561;SDS011;69047;53.358;-1.486;2023-08-17T02:11:07;110.40;;;45.50;;
54561;SDS011;69047;53.358;-1.486;2023-08-17T02:13:32;88.45;;;44.53;;
54561;SDS011;69047;53.358;-1.486;2023-08-17T02:15:58;104.40;;;44.08;;
54561;SDS011;69047;53.358;-1.486;2023-08-17T02:18:23;96.25;;;44.45;;
54561;SDS011;69047;53.358;-1.486;2023-08-17T02:20:48;92.63;;;42.13;;
54561;SDS011;69047;53.358;-1.486;2023-08-17T02:23:14;99.85;;;42.55;;
54561;SDS011;69047;53.358;-1.486;2023-08-17T02:25:39;99.90;;;44.88;;
54561;SDS011;69047;53.358;-1.486;2023-08-17T02:28:05;99.95;;;44.00;;
54561;SDS011;69047;53.358;-1.486;2023-08-17T02:30:31;102.05;;;45.63;;
54561;SDS011;69047;53.358;-1.486;2023-08-17T02:32:56;97.18;;;42.50;;
54561;SDS011;69047;53.358;-1.486;2023-08-17T02:35:23;98.38;;;43.15;;
54561;SDS011;69047;53.358;-1.486;2023-08-17T02:37:52;89.28;;;42.60;;
54561;SDS011;69047;53.358;-1.486;2023-08-17T02:40:20;89.38;;;41.95;;
54561;SDS011;69047;53.358;-1.486;2023-08-17T02:42:45;99.80;;;43.95;;
54561;SDS011;69047;53.358;-1.486;2023-08-17T02:45:10;106.32;;;43.25;;
54561;SDS011;69047;53.358;-1.486;2023-08-17T02:47:36;113.20;;;46.08;;
54561;SDS011;69047;53.358;-1.486;2023-08-17T02:50:01;108.15;;;44.97;;
54561;SDS011;69047;53.358;-1.486;2023-08-17T02:52:27;108.43;;;45.00;;
54561;SDS011;69047;53.358;-1.486;2023-08-17T02:54:52;103.95;;;42.67;;
54561;SDS011;69047;53.358;-1.486;2023-08-17T02:57:18;114.63;;;45.38;;
54561;SDS011;69047;53.358;-1.486;2023-08-17T02:59:44;107.85;;;46.15;;
54561;SDS011;69047;53.358;-1.486;2023-08-17T03:02:09;107.53;;;45.88;;
54561;SDS011;69047;53.358;-1.486;2023-08-17T03:04:34;123.28;;;48.10;;
54561;SDS011;69047;53.358;-1.486;2023-08-17T03:07:00;110.22;;;42.97;;
54561;SDS011;69047;53.358;-1.486;2023-08-17T03:09:25;105.45;;;46.17;;
54561;SDS011;69047;53.358;-1.486;2023-08-17T03:11:51;103.45;;;47.25;;
54561;SDS011;69047;53.358;-1.486;2023-08-17T03:14:17;120.22;;;50.03;;
54561;SDS011;69047;53.358;-1.486;2023-08-17T03:16:42;118.60;;;48.45;;
54561;SDS011;69047;53.358;-1.486;2023-08-17T03:19:07;128.85;;;49.88;;
54561;SDS011;69047;53.358;-1.486;2023-08-17T03:21:35;126.45;;;48.83;;
54561;SDS011;69047;53.358;-1.486;2023-08-17T03:24:01;127.60;;;49.65;;
54561;SDS011;69047;53.358;-1.486;2023-08-17T03:26:26;133.32;;;50.17;;
54561;SDS011;69047;53.358;-1.486;2023-08-17T03:28:52;115.25;;;49.78;;
54561;SDS011;69047;53.358;-1.486;2023-08-17T03:31:17;118.38;;;54.20;;
54561;SDS011;69047;53.358;-1.486;2023-08-17T03:33:46;118.47;;;52.78;;
54561;SDS011;69047;53.358;-1.486;2023-08-17T03:36:11;122.78;;;51.65;;
54561;SDS011;69047;53.358;-1.486;2023-08-17T03:38:36;120.03;;;53.38;;
54561;SDS011;69047;53.358;-1.486;2023-08-17T03:41:04;115.63;;;53.35;;
54561;SDS011;69047;53.358;-1.486;2023-08-17T03:43:30;128.13;;;52.90;;
54561;SDS011;69047;53.358;-1.486;2023-08-17T03:45:55;121.85;;;56.17;;
54561;SDS011;69047;53.358;-1.486;2023-08-17T03:48:20;136.05;;;55.10;;
54561;SDS011;69047;53.358;-1.486;2023-08-17T03:50:50;124.25;;;56.40;;
54561;SDS011;69047;53.358;-1.486;2023-08-17T03:53:16;134.13;;;57.65;;
54561;SDS011;69047;53.358;-1.486;2023-08-17T03:55:45;123.00;;;54.97;;
54561;SDS011;69047;53.358;-1.486;2023-08-17T03:58:12;116.28;;;54.92;;
54561;SDS011;69047;53.358;-1.486;2023-08-17T04:00:37;114.70;;;55.67;;
54561;SDS011;69047;53.358;-1.486;2023-08-17T04:03:04;121.32;;;56.92;;
54561;SDS011;69047;53.358;-1.486;2023-08-17T04:05:29;112.15;;;55.45;;
54561;SDS011;69047;53.358;-1.486;2023-08-17T04:07:55;126.95;;;57.60;;
54561;SDS011;69047;53.358;-1.486;2023-08-17T04:10:21;125.00;;;54.38;;
54561;SDS011;69047;53.358;-1.486;2023-08-17T04:12:46;106.22;;;51.53;;
54561;SDS011;69047;53.358;-1.486;2023-08-17T04:15:11;113.93;;;53.88;;
54561;SDS011;69047;53.358;-1.486;2023-08-17T04:17:37;98.00;;;49.88;;
54561;SDS011;69047;53.358;-1.486;2023-08-17T04:20:02;108.32;;;50.40;;
54561;SDS011;69047;53.358;-1.486;2023-08-17T04:22:28;100.43;;;49.72;;
54561;SDS011;69047;53.358;-1.486;2023-08-17T04:24:53;101.32;;;48.75;;
54561;SDS011;69047;53.358;-1.486;2023-08-17T04:27:18;97.75;;;46.42;;
54561;SDS011;69047;53.358;-1.486;2023-08-17T04:29:44;105.32;;;47.53;;
54561;SDS011;69047;53.358;-1.486;2023-08-17T04:32:13;104.35;;;47.35;;
54561;SDS011;69047;53.358;-1.486;2023-08-17T04:34:41;94.10;;;44.90;;
54561;SDS011;69047;53.358;-1.486;2023-08-17T04:37:06;98.22;;;46.83;;
54561;SDS011;69047;53.358;-1.486;2023-08-17T04:39:32;97.88;;;45.88;;
54561;SDS011;69047;53.358;-1.486;2023-08-17T04:41:58;86.55;;;44.25;;
54561;SDS011;69047;53.358;-1.486;2023-08-17T04:44:23;95.05;;;45.60;;
54561;SDS011;69047;53.358;-1.486;2023-08-17T04:46:48;106.30;;;46.55;;
54561;SDS011;69047;53.358;-1.486;2023-08-17T04:49:14;98.03;;;48.30;;
54561;SDS011;69047;53.358;-1.486;2023-08-17T04:51:39;89.45;;;43.95;;
54561;SDS011;69047;53.358;-1.486;2023-08-17T04:54:04;96.35;;;44.33;;
54561;SDS011;69047;53.358;-1.486;2023-08-17T04:56:30;97.03;;;45.38;;
54561;SDS011;69047;53.358;-1.486;2023-08-17T04:58:55;85.43;;;44.80;;
54561;SDS011;69047;53.358;-1.486;2023-08-17T05:01:21;87.82;;;42.50;;
54561;SDS011;69047;53.358;-1.486;2023-08-17T05:03:46;91.63;;;41.65;;
54561;SDS011;69047;53.358;-1.486;2023-08-17T05:06:12;84.53;;;42.15;;
54561;SDS011;69047;53.358;-1.486;2023-08-17T05:08:38;86.25;;;40.22;;
54561;SDS011;69047;53.358;-1.486;2023-08-17T05:11:03;81.85;;;40.13;;
54561;SDS011;69047;53.358;-1.486;2023-08-17T05:13:28;85.00;;;39.33;;
54561;SDS011;69047;53.358;-1.486;2023-08-17T05:15:54;84.53;;;38.63;;
54561;SDS011;69047;53.358;-1.486;2023-08-17T05:18:19;76.82;;;36.10;;
54561;SDS011;69047;53.358;-1.486;2023-08-17T05:20:44;73.90;;;36.72;;
54561;SDS011;69047;53.358;-1.486;2023-08-17T05:23:10;66.30;;;35.70;;
54561;SDS011;69047;53.358;-1.486;2023-08-17T05:25:36;75.88;;;36.47;;
54561;SDS011;69047;53.358;-1.486;2023-08-17T05:28:01;66.00;;;34.97;;
54561;SDS011;69047;53.358;-1.486;2023-08-17T05:30:26;63.67;;;32.40;;
54561;SDS011;69047;53.358;-1.486;2023-08-17T05:32:52;68.50;;;33.05;;
54561;SDS011;69047;53.358;-1.486;2023-08-17T05:35:17;65.63;;;32.08;;
54561;SDS011;69047;53.358;-1.486;2023-08-17T05:37:43;64.10;;;31.88;;
54561;SDS011;69047;53.358;-1.486;2023-08-17T05:40:08;56.40;;;29.77;;
54561;SDS011;69047;53.358;-1.486;2023-08-17T05:42:34;62.58;;;29.88;;
54561;SDS011;69047;53.358;-1.486;2023-08-17T05:44:59;47.58;;;26.80;;
54561;SDS011;69047;53.358;-1.486;2023-08-17T05:47:25;48.92;;;26.83;;
54561;SDS011;69047;53.358;-1.486;2023-08-17T05:49:50;47.53;;;26.38;;
54561;SDS011;69047;53.358;-1.486;2023-08-17T05:52:15;51.28;;;25.75;;
54561;SDS011;69047;53.358;-1.486;2023-08-17T05:54:41;48.92;;;26.17;;
54561;SDS011;69047;53.358;-1.486;2023-08-17T05:57:07;45.83;;;24.52;;
54561;SDS011;69047;53.358;-1.486;2023-08-17T05:59:33;44.03;;;26.33;;
54561;SDS011;69047;53.358;-1.486;2023-08-17T06:01:58;49.50;;;24.75;;
54561;SDS011;69047;53.358;-1.486;2023-08-17T06:04:23;50.90;;;24.55;;
54561;SDS011;69047;53.358;-1.486;2023-08-17T06:06:49;56.80;;;25.23;;
54561;SDS011;69047;53.358;-1.486;2023-08-17T06:09:14;38.45;;;20.52;;
54561;SDS011;69047;53.358;-1.486;2023-08-17T06:11:40;30.77;;;19.55;;
54561;SDS011;69047;53.358;-1.486;2023-08-17T06:14:06;35.97;;;19.15;;
54561;SDS011;69047;53.358;-1.486;2023-08-17T06:16:31;42.83;;;18.35;;
54561;SDS011;69047;53.358;-1.486;2023-08-17T06:18:57;26.08;;;15.73;;
54561;SDS011;69047;53.358;-1.486;2023-08-17T06:21:22;31.95;;;17.00;;
54561;SDS011;69047;53.358;-1.486;2023-08-17T06:23:48;29.23;;;15.50;;
54561;SDS011;69047;53.358;-1.486;2023-08-17T06:26:13;29.95;;;16.80;;
54561;SDS011;69047;53.358;-1.486;2023-08-17T06:28:38;40.65;;;16.63;;
54561;SDS011;69047;53.358;-1.486;2023-08-17T06:31:04;42.85;;;19.17;;
54561;SDS011;69047;53.358;-1.486;2023-08-17T06:33:29;43.72;;;18.38;;
54561;SDS011;69047;53.358;-1.486;2023-08-17T06:35:55;33.78;;;18.77;;
54561;SDS011;69047;53.358;-1.486;2023-08-17T06:38:20;30.10;;;16.80;;
54561;SDS011;69047;53.358;-1.486;2023-08-17T06:40:45;31.77;;;18.08;;
54561;SDS011;69047;53.358;-1.486;2023-08-17T06:43:11;29.88;;;16.88;;
54561;SDS011;69047;53.358;-1.486;2023-08-17T06:45:37;37.00;;;19.23;;
54561;SDS011;69047;53.358;-1.486;2023-08-17T06:48:03;31.98;;;15.77;;
54561;SDS011;69047;53.358;-1.486;2023-08-17T06:50:28;29.17;;;15.40;;
54561;SDS011;69047;53.358;-1.486;2023-08-17T06:52:54;29.40;;;14.60;;
54561;SDS011;69047;53.358;-1.486;2023-08-17T06:55:19;26.10;;;12.68;;
54561;SDS011;69047;53.358;-1.486;2023-08-17T06:57:45;22.60;;;12.18;;
54561;SDS011;69047;53.358;-1.486;2023-08-17T07:00:10;23.48;;;11.27;;
54561;SDS011;69047;53.358;-1.486;2023-08-17T07:02:36;28.55;;;10.25;;
54561;SDS011;69047;53.358;-1.486;2023-08-17T07:05:02;19.25;;;9.15;;
54561;SDS011;69047;53.358;-1.486;2023-08-17T07:07:29;21.95;;;8.90;;
54561;SDS011;69047;53.358;-1.486;2023-08-17T07:09:56;19.60;;;9.13;;
54561;SDS011;69047;53.358;-1.486;2023-08-17T07:12:25;23.67;;;7.60;;
54561;SDS011;69047;53.358;-1.486;2023-08-17T07:14:50;20.67;;;8.20;;
54561;SDS011;69047;53.358;-1.486;2023-08-17T07:17:16;21.13;;;8.32;;
54561;SDS011;69047;53.358;-1.486;2023-08-17T07:19:41;16.23;;;6.82;;
54561;SDS011;69047;53.358;-1.486;2023-08-17T07:22:07;24.90;;;8.38;;
54561;SDS011;69047;53.358;-1.486;2023-08-17T07:24:32;21.80;;;7.35;;
54561;SDS011;69047;53.358;-1.486;2023-08-17T07:26:58;16.55;;;8.40;;
54561;SDS011;69047;53.358;-1.486;2023-08-17T07:29:23;18.48;;;7.53;;
54561;SDS011;69047;53.358;-1.486;2023-08-17T07:31:48;18.30;;;7.50;;
54561;SDS011;69047;53.358;-1.486;2023-08-17T07:34:14;19.15;;;6.97;;
54561;SDS011;69047;53.358;-1.486;2023-08-17T07:36:39;20.52;;;7.40;;
54561;SDS011;69047;53.358;-1.486;2023-08-17T07:39:04;25.33;;;8.27;;
54561;SDS011;69047;53.358;-1.486;2023-08-17T07:41:30;18.95;;;7.15;;
54561;SDS011;69047;53.358;-1.486;2023-08-17T07:43:55;18.38;;;7.40;;
54561;SDS011;69047;53.358;-1.486;2023-08-17T07:46:21;21.58;;;5.80;;
54561;SDS011;69047;53.358;-1.486;2023-08-17T07:48:46;17.70;;;6.60;;
54561;SDS011;69047;53.358;-1.486;2023-08-17T07:51:12;16.00;;;6.05;;
54561;SDS011;69047;53.358;-1.486;2023-08-17T07:53:38;17.92;;;6.40;;
54561;SDS011;69047;53.358;-1.486;2023-08-17T07:56:04;18.98;;;5.80;;
54561;SDS011;69047;53.358;-1.486;2023-08-17T07:58:29;16.15;;;5.05;;
54561;SDS011;69047;53.358;-1.486;2023-08-17T08:00:54;18.55;;;5.10;;
54561;SDS011;69047;53.358;-1.486;2023-08-17T08:03:20;15.70;;;5.55;;
54561;SDS011;69047;53.358;-1.486;2023-08-17T08:05:45;20.42;;;5.70;;
54561;SDS011;69047;53.358;-1.486;2023-08-17T08:08:11;12.93;;;4.72;;
54561;SDS011;69047;53.358;-1.486;2023-08-17T08:10:36;9.10;;;4.72;;
54561;SDS011;69047;53.358;-1.486;2023-08-17T08:13:02;12.80;;;3.92;;
54561;SDS011;69047;53.358;-1.486;2023-08-17T08:15:27;17.85;;;5.25;;
54561;SDS011;69047;53.358;-1.486;2023-08-17T08:17:53;19.75;;;4.93;;
54561;SDS011;69047;53.358;-1.486;2023-08-17T08:20:19;11.50;;;3.83;;
54561;SDS011;69047;53.358;-1.486;2023-08-17T08:22:45;9.95;;;4.00;;
54561;SDS011;69047;53.358;-1.486;2023-08-17T08:25:10;11.25;;;4.00;;
54561;SDS011;69047;53.358;-1.486;2023-08-17T08:27:36;13.02;;;4.10;;
54561;SDS011;69047;53.358;-1.486;2023-08-17T08:30:01;12.15;;;3.97;;
54561;SDS011;69047;53.358;-1.486;2023-08-17T08:32:26;10.48;;;4.15;;
54561;SDS011;69047;53.358;-1.486;2023-08-17T08:34:52;18.60;;;3.92;;
54561;SDS011;69047;53.358;-1.486;2023-08-17T08:37:17;10.48;;;3.47;;
54561;SDS011;69047;53.358;-1.486;2023-08-17T08:39:49;8.90;;;3.60;;
54561;SDS011;69047;53.358;-1.486;2023-08-17T08:42:19;16.23;;;3.85;;
54561;SDS011;69047;53.358;-1.486;2023-08-17T08:44:45;11.80;;;4.18;;
54561;SDS011;69047;53.358;-1.486;2023-08-17T08:47:11;12.07;;;4.65;;
54561;SDS011;69047;53.358;-1.486;2023-08-17T08:49:42;15.55;;;4.00;;
54561;SDS011;69047;53.358;-1.486;2023-08-17T08:52:18;12.02;;;3.95;;
54561;SDS011;69047;53.358;-1.486;2023-08-17T08:54:48;17.85;;;3.95;;
54561;SDS011;69047;53.358;-1.486;2023-08-17T08:57:15;6.03;;;3.45;;
54561;SDS011;69047;53.358;-1.486;2023-08-17T08:59:42;12.70;;;3.28;;
54561;SDS011;69047;53.358;-1.486;2023-08-17T09:02:15;10.80;;;3.60;;
54561;SDS011;69047;53.358;-1.486;2023-08-17T09:04:42;19.27;;;4.18;;
54561;SDS011;69047;53.358;-1.486;2023-08-17T09:07:10;9.07;;;3.55;;
54561;SDS011;69047;53.358;-1.486;2023-08-17T09:09:37;15.43;;;4.10;;
54561;SDS011;69047;53.358;-1.486;2023-08-17T09:12:03;20.80;;;3.75;;
54561;SDS011;69047;53.358;-1.486;2023-08-17T09:14:29;12.18;;;4.47;;
54561;SDS011;69047;53.358;-1.486;2023-08-17T09:16:55;16.20;;;3.88;;
54561;SDS011;69047;53.358;-1.486;2023-08-17T09:19:23;6.22;;;2.95;;
54561;SDS011;69047;53.358;-1.486;2023-08-17T09:21:49;12.70;;;3.80;;
54561;SDS011;69047;53.358;-1.486;2023-08-17T09:24:15;13.80;;;3.30;;
54561;SDS011;69047;53.358;-1.486;2023-08-17T09:26:40;10.05;;;3.40;;
54561;SDS011;69047;53.358;-1.486;2023-08-17T09:29:18;12.27;;;3.60;;
54561;SDS011;69047;53.358;-1.486;2023-08-17T09:31:45;8.85;;;2.72;;
54561;SDS011;69047;53.358;-1.486;2023-08-17T09:34:14;9.68;;;3.17;;
54561;SDS011;69047;53.358;-1.486;2023-08-17T09:36:41;13.70;;;3.50;;
54561;SDS011;69047;53.358;-1.486;2023-08-17T09:39:07;7.85;;;2.40;;
54561;SDS011;69047;53.358;-1.486;2023-08-17T09:41:40;10.93;;;2.92;;
54561;SDS011;69047;53.358;-1.486;2023-08-17T09:44:06;8.10;;;2.33;;
54561;SDS011;69047;53.358;-1.486;2023-08-17T09:46:32;11.82;;;2.17;;
54561;SDS011;69047;53.358;-1.486;2023-08-17T09:48:58;9.57;;;2.50;;
54561;SDS011;69047;53.358;-1.486;2023-08-17T09:51:23;8.73;;;2.28;;
54561;SDS011;69047;53.358;-1.486;2023-08-17T09:53:52;5.78;;;1.40;;
54561;SDS011;69047;53.358;-1.486;2023-08-17T09:56:20;6.93;;;1.83;;
54561;SDS011;69047;53.358;-1.486;2023-08-17T09:58:47;12.38;;;2.13;;
54561;SDS011;69047;53.358;-1.486;2023-08-17T10:01:13;8.70;;;2.15;;
54561;SDS011;69047;53.358;-1.486;2023-08-17T10:03:41;13.43;;;2.60;;
54561;SDS011;69047;53.358;-1.486;2023-08-17T10:06:11;9.55;;;2.20;;
54561;SDS011;69047;53.358;-1.486;2023-08-17T10:08:45;12.07;;;2.60;;
54561;SDS011;69047;53.358;-1.486;2023-08-17T10:11:12;10.20;;;2.47;;
54561;SDS011;69047;53.358;-1.486;2023-08-17T10:21:48;7.30;;;2.13;;
54561;SDS011;69047;53.358;-1.486;2023-08-17T10:24:16;6.90;;;2.10;;
54561;SDS011;69047;53.358;-1.486;2023-08-17T10:26:44;12.38;;;2.20;;
54561;SDS011;69047;53.358;-1.486;2023-08-17T10:29:10;7.30;;;1.55;;
54561;SDS011;69047;53.358;-1.486;2023-08-17T10:31:37;11.70;;;2.90;;
54561;SDS011;69047;53.358;-1.486;2023-08-17T10:34:03;7.95;;;2.47;;
54561;SDS011;69047;53.358;-1.486;2023-08-17T10:36:33;9.30;;;2.22;;
54561;SDS011;69047;53.358;-1.486;2023-08-17T10:41:47;11.38;;;2.90;;
54561;SDS011;69047;53.358;-1.486;2023-08-17T10:44:14;12.48;;;2.45;;
54561;SDS011;69047;53.358;-1.486;2023-08-17T10:46:40;5.90;;;2.13;;
54561;SDS011;69047;53.358;-1.486;2023-08-17T10:49:06;7.40;;;2.47;;
54561;SDS011;69047;53.358;-1.486;2023-08-17T10:52:04;9.63;;;2.65;;
54561;SDS011;69047;53.358;-1.486;2023-08-17T10:54:38;8.70;;;2.05;;
54561;SDS011;69047;53.358;-1.486;2023-08-17T11:00:05;10.30;;;2.03;;
54561;SDS011;69047;53.358;-1.486;2023-08-17T11:02:33;7.68;;;2.20;;
54561;SDS011;69047;53.358;-1.486;2023-08-17T11:05:02;11.65;;;2.45;;
54561;SDS011;69047;53.358;-1.486;2023-08-17T11:07:37;11.88;;;2.47;;
54561;SDS011;69047;53.358;-1.486;2023-08-17T11:10:11;9.73;;;2.78;;
54561;SDS011;69047;53.358;-1.486;2023-08-17T11:12:57;7.32;;;2.40;;
54561;SDS011;69047;53.358;-1.486;2023-08-17T11:15:28;7.43;;;1.70;;
54561;SDS011;69047;53.358;-1.486;2023-08-17T11:18:03;11.48;;;2.53;;
54561;SDS011;69047;53.358;-1.486;2023-08-17T11:20:29;3.97;;;1.90;;
54561;SDS011;69047;53.358;-1.486;2023-08-17T11:22:55;6.72;;;1.80;;
54561;SDS011;69047;53.358;-1.486;2023-08-17T11:25:23;7.03;;;2.10;;
54561;SDS011;69047;53.358;-1.486;2023-08-17T11:27:48;7.68;;;1.75;;
54561;SDS011;69047;53.358;-1.486;2023-08-17T11:30:15;2.85;;;1.50;;
54561;SDS011;69047;53.358;-1.486;2023-08-17T11:32:40;7.72;;;2.10;;
54561;SDS011;69047;53.358;-1.486;2023-08-17T11:35:05;6.18;;;1.67;;
54561;SDS011;69047;53.358;-1.486;2023-08-17T11:37:31;2.80;;;1.73;;
54561;SDS011;69047;53.358;-1.486;2023-08-17T11:39:57;15.52;;;1.80;;
54561;SDS011;69047;53.358;-1.486;2023-08-17T11:42:23;6.10;;;2.20;;
54561;SDS011;69047;53.358;-1.486;2023-08-17T11:44:48;7.50;;;2.13;;
54561;SDS011;69047;53.358;-1.486;2023-08-17T11:47:14;6.28;;;1.95;;
54561;SDS011;69047;53.358;-1.486;2023-08-17T11:49:39;10.95;;;2.08;;
54561;SDS011;69047;53.358;-1.486;2023-08-17T11:52:05;6.78;;;1.92;;
54561;SDS011;69047;53.358;-1.486;2023-08-17T11:54:32;11.68;;;3.15;;
54561;SDS011;69047;53.358;-1.486;2023-08-17T11:56:58;8.23;;;3.13;;
54561;SDS011;69047;53.358;-1.486;2023-08-17T11:59:24;9.32;;;2.45;;
54561;SDS011;69047;53.358;-1.486;2023-08-17T12:01:49;7.93;;;1.55;;
54561;SDS011;69047;53.358;-1.486;2023-08-17T12:04:15;4.70;;;1.20;;
54561;SDS011;69047;53.358;-1.486;2023-08-17T12:06:44;7.78;;;1.60;;
54561;SDS011;69047;53.358;-1.486;2023-08-17T12:09:12;11.60;;;1.70;;
54561;SDS011;69047;53.358;-1.486;2023-08-17T12:11:39;3.67;;;1.25;;
54561;SDS011;69047;53.358;-1.486;2023-08-17T12:14:10;5.35;;;2.00;;
54561;SDS011;69047;53.358;-1.486;2023-08-17T12:16:46;5.15;;;1.85;;
54561;SDS011;69047;53.358;-1.486;2023-08-17T12:19:15;8.98;;;1.25;;
54561;SDS011;69047;53.358;-1.486;2023-08-17T12:21:41;5.15;;;1.25;;
54561;SDS011;69047;53.358;-1.486;2023-08-17T12:24:10;5.03;;;1.05;;
54561;SDS011;69047;53.358;-1.486;2023-08-17T12:26:45;3.72;;;1.52;;
54561;SDS011;69047;53.358;-1.486;2023-08-17T12:29:12;5.90;;;1.52;;
54561;SDS011;69047;53.358;-1.486;2023-08-17T12:31:38;12.32;;;2.40;;
54561;SDS011;69047;53.358;-1.486;2023-08-17T12:34:03;4.68;;;1.48;;
54561;SDS011;69047;53.358;-1.486;2023-08-17T12:36:31;4.35;;;1.50;;
54561;SDS011;69047;53.358;-1.486;2023-08-17T12:38:57;10.05;;;2.10;;
54561;SDS011;69047;53.358;-1.486;2023-08-17T12:41:22;6.97;;;1.35;;
54561;SDS011;69047;53.358;-1.486;2023-08-17T12:46:30;7.10;;;1.50;;
54561;SDS011;69047;53.358;-1.486;2023-08-17T12:48:58;8.40;;;1.50;;
54561;SDS011;69047;53.358;-1.486;2023-08-17T12:51:24;2.80;;;1.30;;
54561;SDS011;69047;53.358;-1.486;2023-08-17T12:53:49;8.02;;;1.52;;
54561;SDS011;69047;53.358;-1.486;2023-08-17T12:56:15;6.55;;;1.38;;
54561;SDS011;69047;53.358;-1.486;2023-08-17T12:58:40;6.70;;;1.30;;
54561;SDS011;69047;53.358;-1.486;2023-08-17T13:01:06;5.03;;;1.23;;
54561;SDS011;69047;53.358;-1.486;2023-08-17T13:03:31;6.35;;;1.50;;
54561;SDS011;69047;53.358;-1.486;2023-08-17T13:05:57;5.07;;;1.60;;
54561;SDS011;69047;53.358;-1.486;2023-08-17T13:08:22;3.45;;;1.27;;
54561;SDS011;69047;53.358;-1.486;2023-08-17T13:10:48;4.13;;;1.30;;
54561;SDS011;69047;53.358;-1.486;2023-08-17T13:13:13;5.28;;;0.98;;
54561;SDS011;69047;53.358;-1.486;2023-08-17T13:15:39;5.75;;;1.63;;
54561;SDS011;69047;53.358;-1.486;2023-08-17T13:18:04;10.52;;;1.83;;
54561;SDS011;69047;53.358;-1.486;2023-08-17T13:20:30;5.43;;;1.77;;
54561;SDS011;69047;53.358;-1.486;2023-08-17T13:22:55;3.78;;;1.38;;
54561;SDS011;69047;53.358;-1.486;2023-08-17T13:25:21;4.80;;;1.38;;
54561;SDS011;69047;53.358;-1.486;2023-08-17T13:27:46;5.32;;;1.70;;
54561;SDS011;69047;53.358;-1.486;2023-08-17T13:30:12;10.05;;;2.60;;
54561;SDS011;69047;53.358;-1.486;2023-08-17T13:32:37;10.95;;;1.38;;
54561;SDS011;69047;53.358;-1.486;2023-08-17T13:35:03;6.55;;;1.48;;
54561;SDS011;69047;53.358;-1.486;2023-08-17T13:37:29;6.88;;;1.35;;
54561;SDS011;69047;53.358;-1.486;2023-08-17T13:39:54;5.22;;;1.45;;
54561;SDS011;69047;53.358;-1.486;2023-08-17T13:42:20;7.00;;;1.58;;
54561;SDS011;69047;53.358;-1.486;2023-08-17T13:44:45;2.88;;;1.20;;
54561;SDS011;69047;53.358;-1.486;2023-08-17T13:47:11;5.47;;;1.63;;
54561;SDS011;69047;53.358;-1.486;2023-08-17T13:49:37;4.97;;;1.08;;
54561;SDS011;69047;53.358;-1.486;2023-08-17T13:52:02;8.30;;;1.50;;
54561;SDS011;69047;53.358;-1.486;2023-08-17T13:54:28;6.38;;;1.88;;
54561;SDS011;69047;53.358;-1.486;2023-08-17T13:56:53;8.10;;;1.50;;
54561;SDS011;69047;53.358;-1.486;2023-08-17T13:59:19;9.00;;;1.17;;
54561;SDS011;69047;53.358;-1.486;2023-08-17T14:01:44;11.35;;;2.00;;
54561;SDS011;69047;53.358;-1.486;2023-08-17T14:04:09;8.00;;;1.80;;
54561;SDS011;69047;53.358;-1.486;2023-08-17T14:06:37;7.68;;;1.08;;
54561;SDS011;69047;53.358;-1.486;2023-08-17T14:09:04;2.65;;;1.50;;
54561;SDS011;69047;53.358;-1.486;2023-08-17T14:11:30;6.07;;;1.05;;
54561;SDS011;69047;53.358;-1.486;2023-08-17T14:13:55;3.75;;;1.48;;
54561;SDS011;69047;53.358;-1.486;2023-08-17T14:16:21;8.32;;;1.35;;
54561;SDS011;69047;53.358;-1.486;2023-08-17T14:18:46;2.63;;;1.20;;
54561;SDS011;69047;53.358;-1.486;2023-08-17T14:21:12;5.45;;;1.63;;
54561;SDS011;69047;53.358;-1.486;2023-08-17T14:23:38;5.88;;;2.05;;
54561;SDS011;69047;53.358;-1.486;2023-08-17T14:26:04;5.57;;;1.42;;
54561;SDS011;69047;53.358;-1.486;2023-08-17T14:28:29;5.03;;;1.45;;
54561;SDS011;69047;53.358;-1.486;2023-08-17T14:30:55;3.95;;;1.02;;